sensor_id;sensor_type;location;lat;lon;timestamp;P1;durP1;ratioP1;P2;durP2;ratioP2
59302;SDS011;45074;52.764;6.896;2022-10-15T00:00:38;50.70;;;30.20;;
59302;SDS011;45074;52.764;6.896;2022-10-15T00:03:03;52.00;;;30.27;;
59302;SDS011;45074;52.764;6.896;2022-10-15T00:05:30;60.10;;;31.30;;
59302;SDS011;45074;52.764;6.896;2022-10-15T00:07:55;58.33;;;30.90;;
59302;SDS011;45074;52.764;6.896;2022-10-15T00:10:21;63.88;;;31.85;;
59302;SDS011;45074;52.764;6.896;2022-10-15T00:12:47;77.20;;;31.05;;
59302;SDS011;45074;52.764;6.896;2022-10-15T00:15:13;68.05;;;31.60;;
59302;SDS011;45074;52.764;6.896;2022-10-15T00:17:39;98.07;;;34.17;;
59302;SDS011;45074;52.764;6.896;2022-10-15T00:20:06;93.03;;;32.80;;
59302;SDS011;45074;52.764;6.896;2022-10-15T00:22:34;58.50;;;31.02;;
59302;SDS011;45074;52.764;6.896;2022-10-15T00:25:00;69.72;;;31.80;;
59302;SDS011;45074;52.764;6.896;2022-10-15T00:27:25;82.47;;;34.97;;
59302;SDS011;45074;52.764;6.896;2022-10-15T00:29:51;148.70;;;39.25;;
59302;SDS011;45074;52.764;6.896;2022-10-15T00:32:17;131.65;;;38.13;;
59302;SDS011;45074;52.764;6.896;2022-10-15T00:34:42;123.65;;;36.35;;
59302;SDS011;45074;52.764;6.896;2022-10-15T00:37:08;108.50;;;37.50;;
59302;SDS011;45074;52.764;6.896;2022-10-15T00:39:34;74.85;;;33.72;;
59302;SDS011;45074;52.764;6.896;2022-10-15T00:42:00;65.95;;;32.67;;
59302;SDS011;45074;52.764;6.896;2022-10-15T00:47:05;117.38;;;37.15;;
59302;SDS011;45074;52.764;6.896;2022-10-15T00:49:39;101.05;;;36.83;;
59302;SDS011;45074;52.764;6.896;2022-10-15T00:52:13;98.27;;;36.87;;
59302;SDS011;45074;52.764;6.896;2022-10-15T00:54:44;106.15;;;37.22;;
59302;SDS011;45074;52.764;6.896;2022-10-15T00:57:15;86.63;;;34.53;;
59302;SDS011;45074;52.764;6.896;2022-10-15T00:59:42;120.90;;;38.63;;
59302;SDS011;45074;52.764;6.896;2022-10-15T01:02:11;92.28;;;36.70;;
59302;SDS011;45074;52.764;6.896;2022-10-15T01:04:37;95.00;;;36.17;;
59302;SDS011;45074;52.764;6.896;2022-10-15T01:07:04;108.97;;;35.92;;
59302;SDS011;45074;52.764;6.896;2022-10-15T01:09:30;75.68;;;34.67;;
59302;SDS011;45074;52.764;6.896;2022-10-15T01:11:56;141.57;;;37.20;;
59302;SDS011;45074;52.764;6.896;2022-10-15T01:14:26;85.00;;;34.80;;
59302;SDS011;45074;52.764;6.896;2022-10-15T01:17:21;113.57;;;33.78;;
59302;SDS011;45074;52.764;6.896;2022-10-15T01:20:19;136.73;;;35.60;;
59302;SDS011;45074;52.764;6.896;2022-10-15T01:23:13;85.85;;;32.15;;
59302;SDS011;45074;52.764;6.896;2022-10-15T01:29:02;91.93;;;33.03;;
59302;SDS011;45074;52.764;6.896;2022-10-15T01:31:44;102.80;;;34.13;;
59302;SDS011;45074;52.764;6.896;2022-10-15T01:34:23;102.43;;;32.15;;
59302;SDS011;45074;52.764;6.896;2022-10-15T01:37:12;62.80;;;30.90;;
59302;SDS011;45074;52.764;6.896;2022-10-15T01:39:58;63.22;;;31.70;;
59302;SDS011;45074;52.764;6.896;2022-10-15T01:45:17;60.47;;;30.42;;
59302;SDS011;45074;52.764;6.896;2022-10-15T01:50:12;79.18;;;33.90;;
59302;SDS011;45074;52.764;6.896;2022-10-15T01:52:40;75.82;;;33.95;;
59302;SDS011;45074;52.764;6.896;2022-10-15T01:55:09;79.85;;;32.63;;
59302;SDS011;45074;52.764;6.896;2022-10-15T01:57:38;75.93;;;33.05;;
59302;SDS011;45074;52.764;6.896;2022-10-15T02:00:07;79.05;;;32.78;;
59302;SDS011;45074;52.764;6.896;2022-10-15T02:02:33;81.70;;;34.63;;
59302;SDS011;45074;52.764;6.896;2022-10-15T02:04:58;67.25;;;34.65;;
59302;SDS011;45074;52.764;6.896;2022-10-15T02:07:48;80.38;;;34.40;;
59302;SDS011;45074;52.764;6.896;2022-10-15T02:10:30;83.32;;;32.58;;
59302;SDS011;45074;52.764;6.896;2022-10-15T02:15:52;80.55;;;31.75;;
59302;SDS011;45074;52.764;6.896;2022-10-15T02:18:46;71.03;;;30.77;;
59302;SDS011;45074;52.764;6.896;2022-10-15T02:21:18;65.82;;;30.42;;
59302;SDS011;45074;52.764;6.896;2022-10-15T02:24:49;72.88;;;31.08;;
59302;SDS011;45074;52.764;6.896;2022-10-15T02:26:54;69.38;;;31.52;;
59302;SDS011;45074;52.764;6.896;2022-10-15T02:29:23;68.13;;;30.02;;
59302;SDS011;45074;52.764;6.896;2022-10-15T02:31:53;85.03;;;32.80;;
59302;SDS011;45074;52.764;6.896;2022-10-15T02:34:21;76.90;;;31.35;;
59302;SDS011;45074;52.764;6.896;2022-10-15T02:36:52;67.28;;;29.00;;
59302;SDS011;45074;52.764;6.896;2022-10-15T02:39:20;66.28;;;30.48;;
59302;SDS011;45074;52.764;6.896;2022-10-15T02:41:48;64.18;;;29.85;;
59302;SDS011;45074;52.764;6.896;2022-10-15T02:44:15;68.18;;;28.83;;
59302;SDS011;45074;52.764;6.896;2022-10-15T02:46:41;69.47;;;30.17;;
59302;SDS011;45074;52.764;6.896;2022-10-15T02:49:06;72.72;;;31.75;;
59302;SDS011;45074;52.764;6.896;2022-10-15T02:51:33;88.68;;;33.13;;
59302;SDS011;45074;52.764;6.896;2022-10-15T02:54:00;63.67;;;29.73;;
59302;SDS011;45074;52.764;6.896;2022-10-15T02:56:27;73.40;;;30.15;;
59302;SDS011;45074;52.764;6.896;2022-10-15T02:58:52;66.10;;;31.73;;
59302;SDS011;45074;52.764;6.896;2022-10-15T03:01:18;74.55;;;31.98;;
59302;SDS011;45074;52.764;6.896;2022-10-15T03:03:44;64.65;;;31.25;;
59302;SDS011;45074;52.764;6.896;2022-10-15T03:06:09;61.63;;;30.63;;
59302;SDS011;45074;52.764;6.896;2022-10-15T03:08:35;67.95;;;29.88;;
59302;SDS011;45074;52.764;6.896;2022-10-15T03:11:01;63.55;;;31.15;;
59302;SDS011;45074;52.764;6.896;2022-10-15T03:13:27;65.43;;;31.05;;
59302;SDS011;45074;52.764;6.896;2022-10-15T03:15:53;71.00;;;31.63;;
59302;SDS011;45074;52.764;6.896;2022-10-15T03:18:19;67.65;;;30.92;;
59302;SDS011;45074;52.764;6.896;2022-10-15T03:20:52;60.15;;;31.23;;
59302;SDS011;45074;52.764;6.896;2022-10-15T03:23:21;58.75;;;29.23;;
59302;SDS011;45074;52.764;6.896;2022-10-15T03:25:47;65.00;;;30.88;;
59302;SDS011;45074;52.764;6.896;2022-10-15T03:28:13;65.68;;;30.70;;
59302;SDS011;45074;52.764;6.896;2022-10-15T03:30:39;59.75;;;30.35;;
59302;SDS011;45074;52.764;6.896;2022-10-15T03:33:04;62.95;;;31.05;;
59302;SDS011;45074;52.764;6.896;2022-10-15T03:35:30;54.38;;;28.33;;
59302;SDS011;45074;52.764;6.896;2022-10-15T03:37:55;56.67;;;28.85;;
59302;SDS011;45074;52.764;6.896;2022-10-15T03:40:21;55.70;;;28.38;;
59302;SDS011;45074;52.764;6.896;2022-10-15T03:42:50;61.45;;;29.95;;
59302;SDS011;45074;52.764;6.896;2022-10-15T03:45:19;50.00;;;28.67;;
59302;SDS011;45074;52.764;6.896;2022-10-15T03:47:45;57.78;;;29.55;;
59302;SDS011;45074;52.764;6.896;2022-10-15T03:50:10;54.33;;;28.52;;
59302;SDS011;45074;52.764;6.896;2022-10-15T03:52:36;51.85;;;28.58;;
59302;SDS011;45074;52.764;6.896;2022-10-15T03:55:03;51.22;;;27.40;;
59302;SDS011;45074;52.764;6.896;2022-10-15T03:57:29;51.85;;;27.23;;
59302;SDS011;45074;52.764;6.896;2022-10-15T03:59:55;51.58;;;28.05;;
59302;SDS011;45074;52.764;6.896;2022-10-15T04:02:20;52.22;;;28.65;;
59302;SDS011;45074;52.764;6.896;2022-10-15T04:04:46;50.85;;;28.13;;
59302;SDS011;45074;52.764;6.896;2022-10-15T04:07:12;50.15;;;28.05;;
59302;SDS011;45074;52.764;6.896;2022-10-15T04:09:37;53.05;;;28.92;;
59302;SDS011;45074;52.764;6.896;2022-10-15T04:12:03;52.03;;;28.30;;
59302;SDS011;45074;52.764;6.896;2022-10-15T04:14:29;52.85;;;28.33;;
59302;SDS011;45074;52.764;6.896;2022-10-15T04:16:55;49.40;;;27.10;;
59302;SDS011;45074;52.764;6.896;2022-10-15T04:19:23;49.88;;;27.10;;
59302;SDS011;45074;52.764;6.896;2022-10-15T04:21:49;47.97;;;27.33;;
59302;SDS011;45074;52.764;6.896;2022-10-15T04:24:14;49.67;;;26.52;;
59302;SDS011;45074;52.764;6.896;2022-10-15T04:26:40;48.30;;;26.98;;
59302;SDS011;45074;52.764;6.896;2022-10-15T04:29:05;49.55;;;26.33;;
59302;SDS011;45074;52.764;6.896;2022-10-15T04:31:31;49.47;;;26.90;;
59302;SDS011;45074;52.764;6.896;2022-10-15T04:33:57;45.85;;;26.50;;
59302;SDS011;45074;52.764;6.896;2022-10-15T04:36:23;48.00;;;25.90;;
59302;SDS011;45074;52.764;6.896;2022-10-15T04:38:49;47.65;;;26.60;;
59302;SDS011;45074;52.764;6.896;2022-10-15T04:41:14;47.40;;;25.85;;
59302;SDS011;45074;52.764;6.896;2022-10-15T04:43:40;46.65;;;26.58;;
59302;SDS011;45074;52.764;6.896;2022-10-15T04:46:06;43.10;;;25.90;;
59302;SDS011;45074;52.764;6.896;2022-10-15T04:48:33;45.00;;;27.35;;
59302;SDS011;45074;52.764;6.896;2022-10-15T04:51:04;46.65;;;26.40;;
59302;SDS011;45074;52.764;6.896;2022-10-15T04:53:32;45.88;;;26.23;;
59302;SDS011;45074;52.764;6.896;2022-10-15T04:56:02;43.75;;;26.67;;
59302;SDS011;45074;52.764;6.896;2022-10-15T04:58:31;48.35;;;26.85;;
59302;SDS011;45074;52.764;6.896;2022-10-15T05:00:59;47.17;;;26.70;;
59302;SDS011;45074;52.764;6.896;2022-10-15T05:03:29;45.13;;;27.27;;
59302;SDS011;45074;52.764;6.896;2022-10-15T05:06:02;47.22;;;27.50;;
59302;SDS011;45074;52.764;6.896;2022-10-15T05:08:30;47.25;;;27.73;;
59302;SDS011;45074;52.764;6.896;2022-10-15T05:11:00;48.45;;;28.40;;
59302;SDS011;45074;52.764;6.896;2022-10-15T05:13:27;49.60;;;28.30;;
59302;SDS011;45074;52.764;6.896;2022-10-15T05:15:54;52.25;;;29.15;;
59302;SDS011;45074;52.764;6.896;2022-10-15T05:18:19;51.10;;;28.38;;
59302;SDS011;45074;52.764;6.896;2022-10-15T05:20:45;48.20;;;28.60;;
59302;SDS011;45074;52.764;6.896;2022-10-15T05:23:11;50.72;;;28.65;;
59302;SDS011;45074;52.764;6.896;2022-10-15T05:25:37;54.78;;;30.40;;
59302;SDS011;45074;52.764;6.896;2022-10-15T05:28:03;52.80;;;29.65;;
59302;SDS011;45074;52.764;6.896;2022-10-15T05:30:28;53.78;;;30.05;;
59302;SDS011;45074;52.764;6.896;2022-10-15T05:32:54;53.03;;;29.88;;
59302;SDS011;45074;52.764;6.896;2022-10-15T05:35:20;54.63;;;31.05;;
59302;SDS011;45074;52.764;6.896;2022-10-15T05:37:47;56.53;;;30.67;;
59302;SDS011;45074;52.764;6.896;2022-10-15T05:40:13;53.38;;;30.85;;
59302;SDS011;45074;52.764;6.896;2022-10-15T05:42:39;53.85;;;30.60;;
59302;SDS011;45074;52.764;6.896;2022-10-15T05:45:04;53.45;;;31.10;;
59302;SDS011;45074;52.764;6.896;2022-10-15T05:47:31;56.28;;;31.48;;
59302;SDS011;45074;52.764;6.896;2022-10-15T05:49:56;69.03;;;35.92;;
59302;SDS011;45074;52.764;6.896;2022-10-15T05:52:22;54.83;;;31.55;;
59302;SDS011;45074;52.764;6.896;2022-10-15T05:54:47;61.47;;;32.22;;
59302;SDS011;45074;52.764;6.896;2022-10-15T05:57:13;65.30;;;33.10;;
59302;SDS011;45074;52.764;6.896;2022-10-15T05:59:39;64.10;;;34.85;;
59302;SDS011;45074;52.764;6.896;2022-10-15T06:02:04;60.08;;;32.08;;
59302;SDS011;45074;52.764;6.896;2022-10-15T06:04:30;57.67;;;31.23;;
59302;SDS011;45074;52.764;6.896;2022-10-15T06:06:56;68.28;;;33.45;;
59302;SDS011;45074;52.764;6.896;2022-10-15T06:09:22;62.63;;;31.83;;
59302;SDS011;45074;52.764;6.896;2022-10-15T06:11:48;61.05;;;32.10;;
59302;SDS011;45074;52.764;6.896;2022-10-15T06:14:14;67.50;;;32.55;;
59302;SDS011;45074;52.764;6.896;2022-10-15T06:16:40;62.30;;;32.50;;
59302;SDS011;45074;52.764;6.896;2022-10-15T06:19:06;63.30;;;31.70;;
59302;SDS011;45074;52.764;6.896;2022-10-15T06:21:31;65.70;;;32.35;;
59302;SDS011;45074;52.764;6.896;2022-10-15T06:23:57;70.60;;;33.95;;
59302;SDS011;45074;52.764;6.896;2022-10-15T06:26:23;66.00;;;32.28;;
59302;SDS011;45074;52.764;6.896;2022-10-15T06:28:48;63.58;;;32.15;;
59302;SDS011;45074;52.764;6.896;2022-10-15T06:31:14;71.55;;;33.47;;
59302;SDS011;45074;52.764;6.896;2022-10-15T06:33:39;75.18;;;33.78;;
59302;SDS011;45074;52.764;6.896;2022-10-15T06:36:06;68.68;;;33.95;;
59302;SDS011;45074;52.764;6.896;2022-10-15T06:38:33;71.38;;;34.28;;
59302;SDS011;45074;52.764;6.896;2022-10-15T06:40:59;62.83;;;33.13;;
59302;SDS011;45074;52.764;6.896;2022-10-15T06:43:27;64.60;;;33.65;;
59302;SDS011;45074;52.764;6.896;2022-10-15T06:45:53;63.72;;;32.78;;
59302;SDS011;45074;52.764;6.896;2022-10-15T06:48:19;65.20;;;32.63;;
59302;SDS011;45074;52.764;6.896;2022-10-15T06:50:44;72.50;;;32.92;;
59302;SDS011;45074;52.764;6.896;2022-10-15T06:53:10;69.68;;;33.13;;
59302;SDS011;45074;52.764;6.896;2022-10-15T06:55:36;65.43;;;34.20;;
59302;SDS011;45074;52.764;6.896;2022-10-15T06:58:03;65.85;;;33.35;;
59302;SDS011;45074;52.764;6.896;2022-10-15T07:00:29;71.97;;;34.15;;
59302;SDS011;45074;52.764;6.896;2022-10-15T07:02:54;69.90;;;36.58;;
59302;SDS011;45074;52.764;6.896;2022-10-15T07:05:20;73.70;;;35.67;;
59302;SDS011;45074;52.764;6.896;2022-10-15T07:07:55;84.82;;;40.47;;
59302;SDS011;45074;52.764;6.896;2022-10-15T07:10:21;72.75;;;35.75;;
59302;SDS011;45074;52.764;6.896;2022-10-15T07:12:48;72.22;;;33.92;;
59302;SDS011;45074;52.764;6.896;2022-10-15T07:15:14;67.70;;;35.25;;
59302;SDS011;45074;52.764;6.896;2022-10-15T07:17:47;68.45;;;35.75;;
59302;SDS011;45074;52.764;6.896;2022-10-15T07:20:13;61.40;;;33.13;;
59302;SDS011;45074;52.764;6.896;2022-10-15T07:22:40;71.25;;;34.90;;
59302;SDS011;45074;52.764;6.896;2022-10-15T07:25:06;68.95;;;35.47;;
59302;SDS011;45074;52.764;6.896;2022-10-15T07:27:33;68.28;;;34.75;;
59302;SDS011;45074;52.764;6.896;2022-10-15T07:29:59;70.00;;;35.47;;
59302;SDS011;45074;52.764;6.896;2022-10-15T07:32:25;67.32;;;33.80;;
59302;SDS011;45074;52.764;6.896;2022-10-15T07:34:51;65.88;;;33.80;;
59302;SDS011;45074;52.764;6.896;2022-10-15T07:37:17;66.20;;;35.65;;
59302;SDS011;45074;52.764;6.896;2022-10-15T07:39:42;65.85;;;36.17;;
59302;SDS011;45074;52.764;6.896;2022-10-15T07:42:08;59.83;;;34.53;;
59302;SDS011;45074;52.764;6.896;2022-10-15T07:44:34;63.88;;;34.22;;
59302;SDS011;45074;52.764;6.896;2022-10-15T07:46:59;60.28;;;33.67;;
59302;SDS011;45074;52.764;6.896;2022-10-15T07:49:25;65.13;;;34.78;;
59302;SDS011;45074;52.764;6.896;2022-10-15T07:51:50;67.10;;;34.92;;
59302;SDS011;45074;52.764;6.896;2022-10-15T07:54:16;63.85;;;34.88;;
59302;SDS011;45074;52.764;6.896;2022-10-15T07:56:42;62.60;;;35.17;;
59302;SDS011;45074;52.764;6.896;2022-10-15T07:59:07;68.05;;;38.35;;
59302;SDS011;45074;52.764;6.896;2022-10-15T08:01:33;60.92;;;34.33;;
59302;SDS011;45074;52.764;6.896;2022-10-15T08:03:59;64.22;;;35.83;;
59302;SDS011;45074;52.764;6.896;2022-10-15T08:06:25;59.83;;;34.78;;
59302;SDS011;45074;52.764;6.896;2022-10-15T08:08:50;64.88;;;36.58;;
59302;SDS011;45074;52.764;6.896;2022-10-15T08:11:16;60.35;;;36.28;;
59302;SDS011;45074;52.764;6.896;2022-10-15T08:13:42;64.43;;;36.55;;
59302;SDS011;45074;52.764;6.896;2022-10-15T08:16:11;64.53;;;37.20;;
59302;SDS011;45074;52.764;6.896;2022-10-15T08:18:38;60.53;;;37.03;;
59302;SDS011;45074;52.764;6.896;2022-10-15T08:21:05;64.22;;;36.70;;
59302;SDS011;45074;52.764;6.896;2022-10-15T08:23:31;64.65;;;37.58;;
59302;SDS011;45074;52.764;6.896;2022-10-15T08:25:58;59.53;;;36.70;;
59302;SDS011;45074;52.764;6.896;2022-10-15T08:28:28;61.72;;;36.95;;
59302;SDS011;45074;52.764;6.896;2022-10-15T08:30:59;58.67;;;36.28;;
59302;SDS011;45074;52.764;6.896;2022-10-15T08:33:26;63.60;;;37.95;;
59302;SDS011;45074;52.764;6.896;2022-10-15T08:35:52;60.13;;;36.38;;
59302;SDS011;45074;52.764;6.896;2022-10-15T08:38:18;66.72;;;37.72;;
59302;SDS011;45074;52.764;6.896;2022-10-15T08:40:47;60.13;;;37.17;;
59302;SDS011;45074;52.764;6.896;2022-10-15T08:43:26;63.75;;;38.60;;
59302;SDS011;45074;52.764;6.896;2022-10-15T08:45:58;60.85;;;37.67;;
59302;SDS011;45074;52.764;6.896;2022-10-15T08:48:31;61.90;;;36.83;;
59302;SDS011;45074;52.764;6.896;2022-10-15T08:53:27;56.15;;;35.30;;
59302;SDS011;45074;52.764;6.896;2022-10-15T08:55:55;51.38;;;32.72;;
59302;SDS011;45074;52.764;6.896;2022-10-15T09:04:12;44.55;;;30.23;;
59302;SDS011;45074;52.764;6.896;2022-10-15T09:06:39;47.50;;;30.95;;
59302;SDS011;45074;52.764;6.896;2022-10-15T09:12:08;46.75;;;31.98;;
59302;SDS011;45074;52.764;6.896;2022-10-15T09:14:55;48.28;;;30.58;;
59302;SDS011;45074;52.764;6.896;2022-10-15T09:17:24;48.40;;;30.30;;
59302;SDS011;45074;52.764;6.896;2022-10-15T09:19:53;49.92;;;30.45;;
59302;SDS011;45074;52.764;6.896;2022-10-15T09:22:27;48.75;;;30.73;;
59302;SDS011;45074;52.764;6.896;2022-10-15T09:24:55;48.55;;;29.77;;
59302;SDS011;45074;52.764;6.896;2022-10-15T09:32:42;49.53;;;30.67;;
59302;SDS011;45074;52.764;6.896;2022-10-15T09:37:53;54.10;;;31.13;;
59302;SDS011;45074;52.764;6.896;2022-10-15T09:42:56;45.15;;;27.13;;
59302;SDS011;45074;52.764;6.896;2022-10-15T09:45:24;48.50;;;27.67;;
59302;SDS011;45074;52.764;6.896;2022-10-15T09:47:50;47.60;;;28.23;;
59302;SDS011;45074;52.764;6.896;2022-10-15T09:50:20;47.60;;;27.88;;
59302;SDS011;45074;52.764;6.896;2022-10-15T09:52:59;46.85;;;28.17;;
59302;SDS011;45074;52.764;6.896;2022-10-15T10:01:06;52.92;;;30.33;;
59302;SDS011;45074;52.764;6.896;2022-10-15T10:03:40;49.22;;;29.38;;
59302;SDS011;45074;52.764;6.896;2022-10-15T10:06:08;49.30;;;29.00;;
59302;SDS011;45074;52.764;6.896;2022-10-15T10:08:55;47.33;;;28.25;;
59302;SDS011;45074;52.764;6.896;2022-10-15T10:11:24;45.67;;;27.83;;
59302;SDS011;45074;52.764;6.896;2022-10-15T10:13:58;45.13;;;26.60;;
59302;SDS011;45074;52.764;6.896;2022-10-15T10:16:25;41.60;;;25.52;;
59302;SDS011;45074;52.764;6.896;2022-10-15T10:19:01;39.85;;;24.23;;
59302;SDS011;45074;52.764;6.896;2022-10-15T10:21:38;39.58;;;24.75;;
59302;SDS011;45074;52.764;6.896;2022-10-15T10:26:54;38.13;;;24.42;;
59302;SDS011;45074;52.764;6.896;2022-10-15T10:29:21;37.40;;;23.98;;
59302;SDS011;45074;52.764;6.896;2022-10-15T10:31:48;36.50;;;24.85;;
59302;SDS011;45074;52.764;6.896;2022-10-15T10:34:29;34.95;;;23.05;;
59302;SDS011;45074;52.764;6.896;2022-10-15T10:36:57;33.75;;;23.00;;
59302;SDS011;45074;52.764;6.896;2022-10-15T10:39:27;33.13;;;21.67;;
59302;SDS011;45074;52.764;6.896;2022-10-15T10:41:57;32.47;;;21.33;;
59302;SDS011;45074;52.764;6.896;2022-10-15T10:44:29;30.75;;;20.67;;
59302;SDS011;45074;52.764;6.896;2022-10-15T10:49:35;35.25;;;20.90;;
59302;SDS011;45074;52.764;6.896;2022-10-15T10:52:09;31.42;;;20.75;;
59302;SDS011;45074;52.764;6.896;2022-10-15T10:54:58;33.17;;;21.02;;
59302;SDS011;45074;52.764;6.896;2022-10-15T10:57:50;28.48;;;20.30;;
59302;SDS011;45074;52.764;6.896;2022-10-15T11:00:19;28.60;;;20.13;;
59302;SDS011;45074;52.764;6.896;2022-10-15T11:02:57;26.50;;;19.10;;
59302;SDS011;45074;52.764;6.896;2022-10-15T11:05:27;28.15;;;18.83;;
59302;SDS011;45074;52.764;6.896;2022-10-15T11:10:35;25.90;;;18.13;;
59302;SDS011;45074;52.764;6.896;2022-10-15T11:16:07;25.38;;;17.50;;
59302;SDS011;45074;52.764;6.896;2022-10-15T11:18:53;24.55;;;17.27;;
59302;SDS011;45074;52.764;6.896;2022-10-15T11:21:37;25.75;;;16.70;;
59302;SDS011;45074;52.764;6.896;2022-10-15T11:24:26;24.02;;;16.23;;
59302;SDS011;45074;52.764;6.896;2022-10-15T11:27:21;21.02;;;14.95;;
59302;SDS011;45074;52.764;6.896;2022-10-15T11:37:50;23.80;;;15.80;;
59302;SDS011;45074;52.764;6.896;2022-10-15T11:46:13;19.10;;;13.32;;
59302;SDS011;45074;52.764;6.896;2022-10-15T11:54:34;19.52;;;12.70;;
59302;SDS011;45074;52.764;6.896;2022-10-15T11:57:03;18.30;;;12.73;;
59302;SDS011;45074;52.764;6.896;2022-10-15T11:59:36;17.67;;;12.40;;
59302;SDS011;45074;52.764;6.896;2022-10-15T12:02:21;17.45;;;12.52;;
59302;SDS011;45074;52.764;6.896;2022-10-15T12:04:54;18.45;;;12.73;;
59302;SDS011;45074;52.764;6.896;2022-10-15T12:07:47;19.55;;;12.65;;
59302;SDS011;45074;52.764;6.896;2022-10-15T12:10:20;19.77;;;13.02;;
59302;SDS011;45074;52.764;6.896;2022-10-15T12:16:00;18.25;;;12.93;;
59302;SDS011;45074;52.764;6.896;2022-10-15T12:18:53;21.75;;;13.80;;
59302;SDS011;45074;52.764;6.896;2022-10-15T12:21:35;20.10;;;14.27;;
59302;SDS011;45074;52.764;6.896;2022-10-15T12:24:04;22.25;;;14.55;;
59302;SDS011;45074;52.764;6.896;2022-10-15T12:26:50;20.52;;;13.95;;
59302;SDS011;45074;52.764;6.896;2022-10-15T12:29:19;20.75;;;14.30;;
59302;SDS011;45074;52.764;6.896;2022-10-15T12:31:50;22.63;;;14.32;;
59302;SDS011;45074;52.764;6.896;2022-10-15T12:34:24;21.17;;;14.52;;
59302;SDS011;45074;52.764;6.896;2022-10-15T12:39:59;23.08;;;15.00;;
59302;SDS011;45074;52.764;6.896;2022-10-15T12:42:29;25.58;;;15.82;;
59302;SDS011;45074;52.764;6.896;2022-10-15T12:44:57;23.92;;;15.95;;
59302;SDS011;45074;52.764;6.896;2022-10-15T12:47:46;25.83;;;16.42;;
59302;SDS011;45074;52.764;6.896;2022-10-15T12:50:27;24.20;;;16.10;;
59302;SDS011;45074;52.764;6.896;2022-10-15T12:55:33;27.55;;;17.83;;
59302;SDS011;45074;52.764;6.896;2022-10-15T13:08:47;28.75;;;19.75;;
59302;SDS011;45074;52.764;6.896;2022-10-15T13:11:24;27.95;;;19.75;;
59302;SDS011;45074;52.764;6.896;2022-10-15T13:16:46;28.13;;;20.65;;
59302;SDS011;45074;52.764;6.896;2022-10-15T13:21:55;30.02;;;20.73;;
59302;SDS011;45074;52.764;6.896;2022-10-15T13:24:24;28.95;;;21.70;;
59302;SDS011;45074;52.764;6.896;2022-10-15T13:26:52;29.98;;;21.17;;
59302;SDS011;45074;52.764;6.896;2022-10-15T13:29:20;29.48;;;22.08;;
59302;SDS011;45074;52.764;6.896;2022-10-15T13:31:47;32.83;;;23.00;;
59302;SDS011;45074;52.764;6.896;2022-10-15T13:34:18;28.42;;;21.70;;
59302;SDS011;45074;52.764;6.896;2022-10-15T13:39:26;28.52;;;20.45;;
59302;SDS011;45074;52.764;6.896;2022-10-15T13:41:54;29.58;;;22.38;;
59302;SDS011;45074;52.764;6.896;2022-10-15T13:44:30;27.77;;;20.92;;
59302;SDS011;45074;52.764;6.896;2022-10-15T13:46:56;29.02;;;21.83;;
59302;SDS011;45074;52.764;6.896;2022-10-15T13:49:21;26.55;;;21.65;;
59302;SDS011;45074;52.764;6.896;2022-10-15T13:51:48;27.40;;;21.95;;
59302;SDS011;45074;52.764;6.896;2022-10-15T13:54:16;29.02;;;22.42;;
59302;SDS011;45074;52.764;6.896;2022-10-15T13:56:47;26.85;;;20.85;;
59302;SDS011;45074;52.764;6.896;2022-10-15T13:59:26;25.02;;;20.35;;
59302;SDS011;45074;52.764;6.896;2022-10-15T14:01:55;23.35;;;19.40;;
59302;SDS011;45074;52.764;6.896;2022-10-15T14:04:25;22.17;;;18.73;;
59302;SDS011;45074;52.764;6.896;2022-10-15T14:06:56;20.95;;;18.27;;
59302;SDS011;45074;52.764;6.896;2022-10-15T14:09:31;20.10;;;17.25;;
59302;SDS011;45074;52.764;6.896;2022-10-15T14:11:59;18.77;;;16.30;;
59302;SDS011;45074;52.764;6.896;2022-10-15T14:14:32;17.30;;;15.25;;
59302;SDS011;45074;52.764;6.896;2022-10-15T14:17:02;16.65;;;14.85;;
59302;SDS011;45074;52.764;6.896;2022-10-15T14:19:43;17.38;;;14.77;;
59302;SDS011;45074;52.764;6.896;2022-10-15T14:22:17;15.90;;;14.13;;
59302;SDS011;45074;52.764;6.896;2022-10-15T14:24:47;17.73;;;14.20;;
59302;SDS011;45074;52.764;6.896;2022-10-15T14:27:20;14.52;;;12.95;;
59302;SDS011;45074;52.764;6.896;2022-10-15T14:29:50;14.20;;;12.65;;
59302;SDS011;45074;52.764;6.896;2022-10-15T14:32:22;13.45;;;11.45;;
59302;SDS011;45074;52.764;6.896;2022-10-15T14:34:52;13.27;;;11.15;;
59302;SDS011;45074;52.764;6.896;2022-10-15T14:37:27;14.70;;;10.02;;
59302;SDS011;45074;52.764;6.896;2022-10-15T14:40:00;11.20;;;9.63;;
59302;SDS011;45074;52.764;6.896;2022-10-15T14:42:40;10.32;;;8.77;;
59302;SDS011;45074;52.764;6.896;2022-10-15T14:45:13;9.52;;;7.72;;
59302;SDS011;45074;52.764;6.896;2022-10-15T14:47:43;9.63;;;7.47;;
59302;SDS011;45074;52.764;6.896;2022-10-15T14:50:11;10.45;;;7.72;;
59302;SDS011;45074;52.764;6.896;2022-10-15T14:52:39;10.68;;;7.97;;
59302;SDS011;45074;52.764;6.896;2022-10-15T14:57:47;9.05;;;6.97;;
59302;SDS011;45074;52.764;6.896;2022-10-15T15:02:51;9.18;;;6.97;;
59302;SDS011;45074;52.764;6.896;2022-10-15T15:05:20;9.32;;;7.05;;
59302;SDS011;45074;52.764;6.896;2022-10-15T15:07:48;10.13;;;7.25;;
59302;SDS011;45074;52.764;6.896;2022-10-15T15:10:14;9.80;;;7.50;;
59302;SDS011;45074;52.764;6.896;2022-10-15T15:12:39;9.05;;;6.78;;
59302;SDS011;45074;52.764;6.896;2022-10-15T15:15:15;8.60;;;6.25;;
59302;SDS011;45074;52.764;6.896;2022-10-15T15:17:42;8.45;;;6.20;;
59302;SDS011;45074;52.764;6.896;2022-10-15T15:20:08;7.80;;;5.63;;
59302;SDS011;45074;52.764;6.896;2022-10-15T15:22:34;9.38;;;5.25;;
59302;SDS011;45074;52.764;6.896;2022-10-15T15:25:25;8.82;;;5.85;;
59302;SDS011;45074;52.764;6.896;2022-10-15T15:27:50;8.00;;;5.65;;
59302;SDS011;45074;52.764;6.896;2022-10-15T15:30:18;7.35;;;5.13;;
59302;SDS011;45074;52.764;6.896;2022-10-15T15:32:45;8.23;;;5.20;;
59302;SDS011;45074;52.764;6.896;2022-10-15T15:35:18;7.68;;;4.93;;
59302;SDS011;45074;52.764;6.896;2022-10-15T15:37:48;7.45;;;4.13;;
59302;SDS011;45074;52.764;6.896;2022-10-15T15:40:14;6.53;;;4.10;;
59302;SDS011;45074;52.764;6.896;2022-10-15T15:42:40;6.85;;;4.35;;
59302;SDS011;45074;52.764;6.896;2022-10-15T15:45:12;6.65;;;4.03;;
59302;SDS011;45074;52.764;6.896;2022-10-15T15:47:47;6.95;;;4.63;;
59302;SDS011;45074;52.764;6.896;2022-10-15T15:50:13;8.05;;;4.93;;
59302;SDS011;45074;52.764;6.896;2022-10-15T15:52:40;7.68;;;5.40;;
59302;SDS011;45074;52.764;6.896;2022-10-15T15:55:05;7.47;;;5.18;;
59302;SDS011;45074;52.764;6.896;2022-10-15T15:57:32;7.15;;;5.20;;
59302;SDS011;45074;52.764;6.896;2022-10-15T15:59:57;8.82;;;5.20;;
59302;SDS011;45074;52.764;6.896;2022-10-15T16:02:23;7.68;;;5.07;;
59302;SDS011;45074;52.764;6.896;2022-10-15T16:04:49;8.00;;;4.90;;
59302;SDS011;45074;52.764;6.896;2022-10-15T16:07:14;8.18;;;5.30;;
59302;SDS011;45074;52.764;6.896;2022-10-15T16:09:40;8.30;;;5.43;;
59302;SDS011;45074;52.764;6.896;2022-10-15T16:12:06;8.63;;;6.05;;
59302;SDS011;45074;52.764;6.896;2022-10-15T16:14:31;7.97;;;5.53;;
59302;SDS011;45074;52.764;6.896;2022-10-15T16:16:57;8.65;;;5.65;;
59302;SDS011;45074;52.764;6.896;2022-10-15T16:19:23;8.57;;;5.80;;
59302;SDS011;45074;52.764;6.896;2022-10-15T16:21:49;12.30;;;6.88;;